Terminal Aerodrome Forecast
Issued by NWS

Current Version | Previous Version | Graphics & Text | Print | Product List | Glossary On
Versions: 1 2 3 4 5 6 7 8 9 10 11 12 13
324
FTUS41 KPBZ 282320
TAFMGW
TAF
KMGW 282320Z 2900/2924 VRB03KT P6SM SCT050
     FM291800 19004KT P6SM BKN050=

USA.gov is the U.S. government's official web portal to all federal, state and local government web resources and services.